Time;durP1;ratioP1;P1;durP2;ratioP2;P2;SDS_P1;SDS_P2;PMS_P1;PMS_P2;Temp;Humidity;BMP_temperature;BMP_pressure;BME280_temperature;BME280_humidity;BME280_pressure;Samples;Min_cycle;Max_cycle;Signal;HPM_P1;HPM_P2
2023/06/14 03:02:05;;;;;;;22.67;21.33;;;10.80;99.90;;;;;;5082316;23;20240;-79
2023/06/14 03:04:37;;;;;;;20.63;19.43;;;10.80;99.90;;;;;;4879811;29;20192;-78
2023/06/14 03:07:08;;;;;;;19.00;17.63;;;10.80;99.90;;;;;;4862316;29;20667;-78
2023/06/14 03:09:38;;;;;;;18.47;17.30;;;10.70;99.90;;;;;;4879516;29;20197;-78
2023/06/14 03:12:06;;;;;;;17.63;16.10;;;10.70;99.90;;;;;;4879274;29;20209;-78
2023/06/14 03:14:33;;;;;;;16.27;14.93;;;10.70;99.90;;;;;;4883028;29;20244;-78
2023/06/14 03:17:00;;;;;;;15.93;14.93;;;10.70;99.90;;;;;;4880720;29;20193;-78
2023/06/14 03:19:26;;;;;;;23.60;21.77;;;10.70;99.90;;;;;;4879287;29;20192;-78
2023/06/14 03:21:53;;;;;;;19.30;17.70;;;10.70;99.90;;;;;;4879169;29;20710;-78
2023/06/14 03:24:19;;;;;;;22.67;20.57;;;10.70;99.90;;;;;;4862419;29;20673;-78
2023/06/14 03:26:46;;;;;;;20.87;19.37;;;10.70;99.90;;;;;;4884407;29;20253;-78
2023/06/14 03:29:11;;;;;;;19.43;18.13;;;10.70;99.90;;;;;;4888404;29;20196;-79
2023/06/14 03:31:57;;;;;;;24.03;22.43;;;10.70;99.90;;;;;;4879702;29;20313;-78
2023/06/14 03:34:23;;;;;;;22.43;20.90;;;10.70;99.90;;;;;;4862715;29;20220;-78
2023/06/14 03:36:49;;;;;;;21.10;19.80;;;10.70;99.90;;;;;;4863956;29;20188;-78
2023/06/14 03:39:15;;;;;;;21.93;20.33;;;10.80;99.90;;;;;;4862916;29;20188;-79
2023/06/14 03:41:40;;;;;;;28.10;26.33;;;10.70;99.90;;;;;;4863214;29;20715;-79
2023/06/14 03:44:06;;;;;;;18.13;16.83;;;10.80;99.90;;;;;;4863051;29;20192;-78
2023/06/14 03:46:32;;;;;;;14.77;13.70;;;10.80;99.90;;;;;;4879282;29;20192;-78
2023/06/14 03:48:58;;;;;;;21.67;20.30;;;10.70;99.90;;;;;;4862932;29;20204;-78
2023/06/14 03:51:25;;;;;;;19.67;18.00;;;10.80;99.90;;;;;;4879806;29;20227;-78
2023/06/14 03:53:51;;;;;;;15.97;14.67;;;10.80;99.90;;;;;;4869806;29;20218;-78
2023/06/14 03:56:16;;;;;;;16.43;15.20;;;10.90;99.90;;;;;;4865116;29;20188;-78
2023/06/14 03:58:42;;;;;;;17.07;15.87;;;10.90;99.90;;;;;;4864873;29;20196;-78
2023/06/14 04:01:08;;;;;;;16.90;15.50;;;10.90;99.90;;;;;;4881976;29;20243;-78
2023/06/14 04:03:34;;;;;;;17.27;15.87;;;11.00;99.90;;;;;;4881359;29;20200;-79
2023/06/14 04:06:00;;;;;;;16.23;15.20;;;11.00;99.90;;;;;;4868022;29;20575;-78
2023/06/14 04:08:26;;;;;;;14.13;13.07;;;11.00;99.90;;;;;;4860009;29;20213;-79
2023/06/14 04:10:52;;;;;;;14.77;13.60;;;11.00;99.90;;;;;;4850871;29;20240;-79
2023/06/14 04:13:17;;;;;;;15.90;14.80;;;11.10;99.90;;;;;;4883092;29;20695;-79
2023/06/14 04:15:45;;;;;;;15.87;14.87;;;11.20;99.90;;;;;;4865100;29;20679;-78
2023/06/14 04:18:12;;;;;;;18.40;16.93;;;11.30;99.90;;;;;;4881779;29;20672;-79
2023/06/14 04:20:38;;;;;;;21.63;20.03;;;11.40;99.90;;;;;;4864447;29;20295;-78
2023/06/14 04:23:15;;;;;;;18.10;16.80;;;11.50;99.90;;;;;;4847090;29;20300;-78
2023/06/14 04:25:44;;;;;;;22.97;21.27;;;11.60;99.90;;;;;;4892519;29;20200;-79
2023/06/14 04:28:11;;;;;;;22.07;20.27;;;11.70;99.90;;;;;;4882084;29;20196;-77
2023/06/14 04:30:38;;;;;;;33.57;31.57;;;11.70;99.90;;;;;;4879742;29;20242;-77
2023/06/14 04:33:05;;;;;;;52.43;49.13;;;11.70;99.90;;;;;;4871128;29;20196;-78
2023/06/14 04:35:35;;;;;;;63.20;59.30;;;11.70;99.90;;;;;;4868592;29;20536;-78
2023/06/14 04:38:04;;;;;;;91.93;86.93;;;11.80;99.90;;;;;;4872700;29;20193;-79
2023/06/14 04:40:33;;;;;;;79.10;74.77;;;11.90;99.90;;;;;;4877122;29;20671;-79
2023/06/14 04:42:59;;;;;;;60.97;57.63;;;12.00;99.90;;;;;;4881792;29;20294;-78
2023/06/14 04:45:32;;;;;;;102.37;96.97;;;12.10;99.90;;;;;;4882001;29;20231;-78
2023/06/14 04:47:59;;;;;;;78.37;73.87;;;12.20;99.90;;;;;;4877928;29;20205;-78
2023/06/14 04:50:25;;;;;;;16.37;15.27;;;12.30;99.90;;;;;;4889707;29;20319;-78
2023/06/14 04:52:53;;;;;;;12.93;11.97;;;12.50;99.90;;;;;;4876667;29;20298;-78
2023/06/14 04:55:19;;;;;;;17.23;15.87;;;12.70;99.90;;;;;;4875169;29;20196;-78
2023/06/14 04:57:47;;;;;;;18.37;17.13;;;12.90;99.90;;;;;;4873265;29;20580;-78
2023/06/14 05:00:13;;;;;;;30.50;28.60;;;13.10;99.90;;;;;;4870164;29;20199;-79
2023/06/14 05:02:40;;;;;;;21.87;20.47;;;13.40;99.90;;;;;;4883115;29;20207;-79
2023/06/14 05:05:07;;;;;;;14.63;9.73;;;13.70;99.90;;;;;;4865964;29;20627;-79
2023/06/14 05:07:33;;;;;;;12.37;11.03;;;14.00;99.90;;;;;;4874225;29;20204;-79
2023/06/14 05:09:59;;;;;;;35.70;33.63;;;14.50;99.90;;;;;;4883478;29;20666;-79
2023/06/14 05:12:25;;;;;;;21.30;19.70;;;15.10;99.90;;;;;;4872557;29;20537;-79
2023/06/14 05:14:51;;;;;;;12.27;11.43;;;15.70;99.90;;;;;;4887802;29;20189;-78
2023/06/14 05:17:17;;;;;;;9.85;8.68;;;16.40;99.90;;;;;;4900415;29;20200;-79
2023/06/14 05:19:43;;;;;;;25.63;24.13;;;16.90;99.90;;;;;;4890047;29;20225;-79
2023/06/14 05:22:09;;;;;;;71.90;67.20;;;17.50;99.90;;;;;;4881876;29;20228;-79
2023/06/14 05:24:35;;;;;;;22.33;20.95;;;17.90;99.90;;;;;;4882776;29;20259;-80
2023/06/14 05:27:01;;;;;;;10.13;9.30;;;18.20;99.90;;;;;;4865432;29;20287;-78
2023/06/14 05:29:27;;;;;;;10.52;9.82;;;18.80;99.90;;;;;;4866336;29;20199;-78
2023/06/14 05:31:53;;;;;;;8.27;7.50;;;19.20;99.80;;;;;;4865101;29;20232;-79
2023/06/14 05:34:18;;;;;;;8.82;6.45;;;19.60;98.60;;;;;;4882116;29;20195;-78
2023/06/14 05:36:44;;;;;;;9.13;8.13;;;19.80;97.30;;;;;;4865170;29;20211;-79
2023/06/14 05:39:10;;;;;;;10.45;9.70;;;20.10;95.70;;;;;;4865194;29;20325;-79
2023/06/14 05:41:36;;;;;;;9.65;8.75;;;20.20;95.30;;;;;;4882547;29;20244;-78
2023/06/14 05:44:02;;;;;;;8.02;7.25;;;20.50;94.50;;;;;;4865935;29;20692;-80
2023/06/14 05:46:28;;;;;;;7.78;7.10;;;20.80;93.80;;;;;;4869402;29;20300;-79
2023/06/14 05:48:54;;;;;;;9.27;8.38;;;21.10;92.40;;;;;;4872326;29;20196;-79
2023/06/14 05:51:21;;;;;;;15.80;14.50;;;21.10;91.80;;;;;;4881518;29;20236;-79
2023/06/14 05:53:48;;;;;;;19.67;18.38;;;21.50;91.20;;;;;;4864647;29;20199;-79
2023/06/14 05:56:15;;;;;;;13.15;12.15;;;21.80;90.20;;;;;;4881701;29;20200;-79
2023/06/14 05:58:41;;;;;;;8.07;7.38;;;22.30;88.70;;;;;;4864604;29;20193;-79
2023/06/14 06:01:07;;;;;;;8.88;8.07;;;22.20;87.40;;;;;;4880669;29;20235;-79
2023/06/14 06:03:33;;;;;;;9.75;7.80;;;22.50;86.20;;;;;;4881267;29;20192;-81
2023/06/14 06:05:59;;;;;;;9.70;8.75;;;22.80;84.70;;;;;;4865040;29;20561;-80
2023/06/14 06:08:25;;;;;;;10.88;10.00;;;23.10;83.40;;;;;;4865427;29;20192;-79
2023/06/14 06:10:51;;;;;;;11.68;10.68;;;23.20;82.00;;;;;;4867498;29;20247;-79
2023/06/14 06:13:17;;;;;;;10.27;9.32;;;23.60;80.40;;;;;;4869634;29;20192;-79
2023/06/14 06:15:43;;;;;;;9.43;8.73;;;23.70;77.90;;;;;;4881874;29;20397;-78
2023/06/14 06:18:09;;;;;;;7.40;6.90;;;23.60;77.40;;;;;;4856580;29;20218;-78
2023/06/14 06:20:36;;;;;;;8.20;7.10;;;23.90;74.70;;;;;;4850339;29;20228;-79
2023/06/14 06:23:02;;;;;;;8.32;7.53;;;24.00;74.60;;;;;;4866893;29;20195;-78
2023/06/14 06:25:28;;;;;;;7.28;6.72;;;24.00;73.00;;;;;;4851220;29;20196;-80
2023/06/14 06:27:57;;;;;;;7.35;6.75;;;24.20;72.40;;;;;;4850144;29;20192;-79
2023/06/14 06:30:24;;;;;;;7.90;7.20;;;24.30;71.80;;;;;;4867206;29;20308;-79
2023/06/14 06:32:50;;;;;;;7.03;6.43;;;24.50;71.10;;;;;;4874449;29;20220;-80
2023/06/14 06:35:16;;;;;;;7.28;6.78;;;24.20;70.60;;;;;;4869802;29;20265;-79
2023/06/14 06:37:42;;;;;;;7.15;6.28;;;24.40;71.20;;;;;;4870166;29;20661;-78
2023/06/14 06:40:09;;;;;;;10.02;9.43;;;24.70;69.40;;;;;;4865590;29;20196;-78
2023/06/14 06:42:35;;;;;;;13.05;11.85;;;25.00;68.70;;;;;;4882290;29;20464;-78
2023/06/14 06:45:01;;;;;;;12.98;11.73;;;25.10;68.60;;;;;;4864415;29;20471;-79
2023/06/14 06:47:27;;;;;;;15.60;14.35;;;25.10;70.00;;;;;;4864290;29;20204;-79
2023/06/14 06:49:53;;;;;;;20.10;18.98;;;25.40;67.80;;;;;;4864368;29;20692;-79
2023/06/14 06:52:19;;;;;;;21.73;20.27;;;25.80;66.80;;;;;;4864954;29;20222;-78
2023/06/14 06:54:45;;;;;;;22.10;20.80;;;25.80;66.00;;;;;;4871094;29;20192;-78
2023/06/14 06:57:11;;;;;;;23.92;22.20;;;26.10;65.60;;;;;;4882096;29;20194;-79
2023/06/14 06:59:37;;;;;;;18.65;17.48;;;26.50;64.50;;;;;;4881894;29;20239;-80
2023/06/14 07:02:03;;;;;;;11.13;10.45;;;26.50;63.00;;;;;;4865298;29;20319;-79
2023/06/14 07:04:29;;;;;;;16.75;15.73;;;26.20;62.50;;;;;;4864363;29;20228;-79
2023/06/14 07:06:55;;;;;;;14.00;13.07;;;25.30;64.80;;;;;;4864650;29;20199;-79
2023/06/14 07:09:21;;;;;;;13.18;12.13;;;25.50;64.20;;;;;;4864180;29;20567;-79
2023/06/14 07:11:47;;;;;;;15.63;14.25;;;25.60;64.80;;;;;;4880808;29;20745;-79
2023/06/14 07:14:13;;;;;;;13.23;12.27;;;25.90;64.40;;;;;;4881244;29;20260;-79
2023/06/14 07:16:40;;;;;;;14.00;13.20;;;25.90;63.60;;;;;;4881236;29;20756;-79
2023/06/14 07:19:06;;;;;;;18.13;16.83;;;26.00;64.00;;;;;;4866816;29;20200;-79
2023/06/14 07:21:32;;;;;;;16.17;14.98;;;26.30;63.30;;;;;;4869174;29;20272;-79
2023/06/14 07:23:58;;;;;;;12.10;11.35;;;26.60;62.60;;;;;;4884167;29;20200;-79
2023/06/14 07:26:24;;;;;;;11.13;10.10;;;26.50;61.80;;;;;;4865805;29;20232;-79
2023/06/14 07:28:52;;;;;;;12.32;9.52;;;26.40;62.40;;;;;;4866385;29;20199;-80
2023/06/14 07:31:19;;;;;;;9.43;8.68;;;26.30;61.90;;;;;;4887723;29;20223;-78
2023/06/14 07:33:45;;;;;;;8.05;7.28;;;26.50;62.30;;;;;;4892211;29;20664;-80
2023/06/14 07:36:11;;;;;;;8.30;7.78;;;26.40;61.70;;;;;;4874113;29;20619;-80
2023/06/14 07:38:37;;;;;;;8.82;8.13;;;26.50;62.60;;;;;;4873863;29;20212;-79
2023/06/14 07:41:02;;;;;;;7.57;7.05;;;26.90;61.10;;;;;;4875617;29;20215;-80
2023/06/14 07:43:29;;;;;;;7.47;6.00;;;27.10;60.70;;;;;;4886937;29;20201;-80
2023/06/14 07:45:55;;;;;;;6.75;6.15;;;27.30;60.80;;;;;;4877020;29;20196;-79
2023/06/14 07:48:20;;;;;;;7.93;6.18;;;27.50;60.80;;;;;;4881362;29;20196;-79
2023/06/14 07:50:46;;;;;;;6.28;5.75;;;27.40;60.90;;;;;;4891309;29;20592;-79
2023/06/14 07:53:12;;;;;;;7.90;5.45;;;27.40;60.40;;;;;;4876353;29;20218;-79
2023/06/14 07:55:39;;;;;;;6.03;5.55;;;27.50;60.40;;;;;;4872679;29;20252;-80
2023/06/14 07:58:08;;;;;;;6.20;5.68;;;27.20;59.50;;;;;;4878726;29;20292;-80
2023/06/14 08:00:34;;;;;;;6.65;5.53;;;27.00;60.90;;;;;;4883060;29;20228;-81
2023/06/14 08:03:00;;;;;;;8.95;5.72;;;26.90;60.60;;;;;;4886542;29;20193;-79
2023/06/14 08:05:26;;;;;;;6.30;5.80;;;26.70;60.70;;;;;;4869817;29;20196;-80
2023/06/14 08:07:52;;;;;;;6.25;5.65;;;26.40;61.30;;;;;;4868928;29;20934;-80
2023/06/14 08:10:18;;;;;;;8.25;5.55;;;26.70;60.40;;;;;;4869345;29;20216;-80
2023/06/14 08:12:44;;;;;;;5.70;5.20;;;27.00;60.10;;;;;;4883716;29;20203;-80
2023/06/14 08:15:10;;;;;;;7.05;6.10;;;27.50;59.80;;;;;;4849929;29;20745;-80
2023/06/14 08:17:36;;;;;;;6.38;5.85;;;28.10;58.10;;;;;;4850479;29;20201;-80
2023/06/14 08:20:04;;;;;;;11.18;7.85;;;28.50;58.20;;;;;;4868794;29;20224;-81
2023/06/14 08:22:33;;;;;;;8.68;8.07;;;28.60;57.00;;;;;;4868017;29;20279;-80
2023/06/14 08:25:01;;;;;;;7.85;7.15;;;28.40;56.70;;;;;;4868595;29;20208;-80
2023/06/14 08:27:27;;;;;;;11.00;7.68;;;28.30;56.20;;;;;;4885216;29;20846;-80
2023/06/14 08:29:53;;;;;;;17.42;16.50;;;28.80;56.70;;;;;;4885286;29;20197;-80
2023/06/14 08:32:19;;;;;;;7.70;7.30;;;28.50;54.10;;;;;;4867827;29;20235;-80
2023/06/14 08:34:45;;;;;;;8.02;6.78;;;27.20;55.20;;;;;;4868193;29;20196;-80
2023/06/14 08:37:10;;;;;;;7.45;5.78;;;27.20;56.00;;;;;;4869014;29;20568;-80
2023/06/14 08:39:36;;;;;;;6.45;5.85;;;26.90;55.50;;;;;;4870900;29;20188;-80
2023/06/14 08:42:03;;;;;;;6.78;6.03;;;26.80;56.20;;;;;;4885795;29;20288;-80
2023/06/14 08:44:30;;;;;;;5.68;5.18;;;26.90;56.20;;;;;;4869085;29;20196;-80
2023/06/14 08:46:59;;;;;;;5.72;5.20;;;26.40;55.00;;;;;;4883717;29;20239;-80
2023/06/14 08:49:25;;;;;;;9.25;6.03;;;26.70;56.20;;;;;;4866573;29;20208;-80
2023/06/14 08:51:58;;;;;;;6.07;5.60;;;26.90;55.10;;;;;;4885350;29;20231;-80
2023/06/14 08:54:30;;;;;;;11.02;5.55;;;26.80;55.10;;;;;;4861559;29;20200;-79
2023/06/14 08:56:57;;;;;;;6.28;5.68;;;27.10;54.60;;;;;;4884695;29;20201;-80
2023/06/14 08:59:31;;;;;;;9.05;6.38;;;26.40;55.10;;;;;;4884470;29;20260;-80
2023/06/14 09:01:57;;;;;;;7.93;6.15;;;26.10;57.20;;;;;;4867705;29;20295;-80
2023/06/14 09:04:25;;;;;;;7.07;6.57;;;26.30;56.00;;;;;;4884315;29;20277;-79
2023/06/14 09:06:52;;;;;;;7.50;6.90;;;26.30;56.60;;;;;;4884146;29;20200;-79
2023/06/14 09:09:20;;;;;;;5.18;4.88;;;26.80;55.90;;;;;;4867585;29;20244;-80
2023/06/14 09:11:46;;;;;;;5.72;5.10;;;27.30;53.40;;;;;;4867767;29;20250;-80
2023/06/14 09:14:12;;;;;;;6.18;5.70;;;27.30;52.80;;;;;;4867072;29;20592;-80
2023/06/14 09:16:38;;;;;;;7.25;6.47;;;26.90;54.10;;;;;;4865892;29;20208;-80
2023/06/14 09:19:03;;;;;;;12.00;7.13;;;26.10;56.60;;;;;;4877655;29;20654;-79
2023/06/14 09:21:35;;;;;;;7.88;6.30;;;26.30;55.70;;;;;;4878339;29;20217;-79
2023/06/14 09:24:02;;;;;;;5.63;5.15;;;27.00;55.00;;;;;;4865219;29;20610;-79
2023/06/14 09:26:28;;;;;;;8.50;5.70;;;27.70;53.80;;;;;;4881253;29;20192;-80
2023/06/14 09:28:55;;;;;;;6.15;5.55;;;28.20;53.00;;;;;;4864602;29;20203;-80
2023/06/14 09:31:22;;;;;;;6.30;5.70;;;28.50;50.70;;;;;;4885617;29;20219;-79
2023/06/14 09:33:51;;;;;;;8.10;7.50;;;29.10;52.00;;;;;;4867136;29;20224;-78
2023/06/14 09:36:18;;;;;;;8.73;7.72;;;29.30;51.10;;;;;;4885976;29;20188;-78
2023/06/14 09:38:54;;;;;;;22.48;21.25;;;28.80;51.40;;;;;;4869203;29;20222;-79
2023/06/14 09:41:20;;;;;;;37.08;35.15;;;29.60;48.10;;;;;;4882113;29;20220;-79
2023/06/14 09:43:47;;;;;;;37.10;34.88;;;30.50;47.90;;;;;;4883645;29;20438;-79
2023/06/14 09:46:13;;;;;;;27.23;25.05;;;31.00;47.90;;;;;;4861704;29;20624;-80
2023/06/14 09:48:42;;;;;;;22.88;21.45;;;30.20;48.20;;;;;;4879643;29;20287;-79
2023/06/14 09:51:13;;;;;;;31.33;29.35;;;30.20;46.80;;;;;;4859442;29;20288;-79
2023/06/14 09:53:41;;;;;;;26.67;24.33;;;29.90;47.80;;;;;;4847089;29;20284;-79
2023/06/14 09:56:07;;;;;;;12.52;11.80;;;30.20;48.50;;;;;;4877381;29;20280;-79
2023/06/14 09:58:37;;;;;;;15.30;14.30;;;30.30;47.20;;;;;;4877428;29;20275;-79
2023/06/14 10:01:05;;;;;;;31.75;30.08;;;29.50;47.60;;;;;;4863733;29;20227;-79
2023/06/14 10:03:31;;;;;;;14.82;13.82;;;28.00;48.80;;;;;;4864835;29;20200;-79
2023/06/14 10:06:02;;;;;;;6.70;6.20;;;27.10;50.30;;;;;;4864434;29;20248;-80
2023/06/14 10:08:33;;;;;;;6.05;5.20;;;26.40;51.70;;;;;;4880798;29;20395;-80
2023/06/14 10:10:58;;;;;;;6.00;5.47;;;26.20;50.90;;;;;;4875837;29;20227;-79
2023/06/14 10:13:27;;;;;;;11.27;10.48;;;27.70;50.20;;;;;;4880867;29;20176;-80
2023/06/14 10:16:15;;;;;;;35.17;33.15;;;29.40;47.90;;;;;;4896451;29;20200;-81
2023/06/14 10:18:57;;;;;;;19.48;18.15;;;30.60;47.10;;;;;;4872873;29;20223;-79
2023/06/14 10:21:32;;;;;;;19.98;18.85;;;30.00;46.30;;;;;;4869252;29;20777;-80
2023/06/14 10:24:03;;;;;;;29.45;27.63;;;29.40;47.20;;;;;;4881136;29;20571;-80
2023/06/14 10:26:29;;;;;;;25.85;24.52;;;28.60;47.90;;;;;;4873634;29;20193;-81
2023/06/14 10:29:11;;;;;;;21.83;20.67;;;27.70;50.50;;;;;;4865212;29;20192;-80
2023/06/14 10:31:42;;;;;;;17.00;15.98;;;27.60;50.30;;;;;;4866736;29;20227;-80
2023/06/14 10:34:08;;;;;;;6.80;5.63;;;27.30;51.00;;;;;;4880836;29;20549;-80
2023/06/14 10:36:35;;;;;;;7.88;5.78;;;26.90;52.30;;;;;;4880554;29;20185;-80
2023/06/14 10:39:19;;;;;;;7.30;6.05;;;26.80;53.10;;;;;;4880668;29;20196;-80
2023/06/14 10:41:56;;;;;;;6.07;5.68;;;26.40;52.70;;;;;;4864352;29;20689;-80
2023/06/14 10:44:22;;;;;;;7.13;5.53;;;26.40;53.30;;;;;;4880533;29;20680;-80
2023/06/14 10:46:53;;;;;;;7.90;5.30;;;26.80;52.60;;;;;;4880270;29;20199;-79
2023/06/14 10:49:20;;;;;;;12.32;7.00;;;28.10;50.70;;;;;;4880458;29;20207;-80
2023/06/14 10:51:50;;;;;;;41.08;38.70;;;29.30;49.80;;;;;;4875436;29;20243;-79
2023/06/14 10:54:16;;;;;;;35.05;32.90;;;30.10;46.80;;;;;;4867423;29;20219;-79
2023/06/14 10:56:50;;;;;;;30.42;28.85;;;29.80;46.90;;;;;;4883348;29;20244;-79
2023/06/14 10:59:17;;;;;;;17.58;16.63;;;30.00;46.90;;;;;;4889407;29;20192;-79
2023/06/14 11:02:21;;;;;;;7.57;6.88;;;31.10;46.80;;;;;;4885736;29;20224;-80
2023/06/14 11:04:48;;;;;;;11.65;11.05;;;32.00;44.90;;;;;;4885405;29;20661;-80
2023/06/14 11:07:52;;;;;;;28.63;27.08;;;32.00;45.50;;;;;;4885943;29;20223;-79
2023/06/14 11:10:37;;;;;;;23.35;22.05;;;32.00;45.50;;;;;;4868945;29;20236;-80
2023/06/14 11:13:04;;;;;;;24.50;23.13;;;32.90;43.30;;;;;;4872682;29;20196;-80
2023/06/14 11:15:34;;;;;;;23.40;22.20;;;33.00;42.90;;;;;;4876806;29;20630;-80
2023/06/14 11:18:02;;;;;;;40.30;38.13;;;31.70;43.30;;;;;;4876639;29;20289;-81
2023/06/14 11:20:30;;;;;;;14.98;13.48;;;29.80;45.80;;;;;;4869261;29;20224;-81
2023/06/14 11:22:56;;;;;;;16.02;14.98;;;28.60;47.80;;;;;;4884427;29;20196;-81
2023/06/14 11:25:22;;;;;;;28.45;26.67;;;28.20;48.80;;;;;;4884774;29;20207;-81
2023/06/14 11:27:50;;;;;;;24.30;23.05;;;29.00;47.80;;;;;;4886003;29;20188;-81
2023/06/14 11:30:16;;;;;;;13.70;12.90;;;29.80;46.90;;;;;;4886923;29;20217;-81
2023/06/14 11:32:45;;;;;;;30.48;28.77;;;31.00;45.50;;;;;;4885643;29;20732;-79
2023/06/14 11:35:11;;;;;;;41.03;38.83;;;31.60;44.00;;;;;;4893548;29;20196;-79
2023/06/14 11:37:41;;;;;;;21.17;19.75;;;32.20;42.60;;;;;;4889350;29;20185;-79
2023/06/14 11:40:09;;;;;;;16.65;15.75;;;33.30;42.10;;;;;;4898643;29;20201;-79
2023/06/14 11:42:40;;;;;;;9.48;8.88;;;33.70;41.90;;;;;;4873235;29;20217;-79
2023/06/14 11:45:10;;;;;;;6.22;5.82;;;34.00;39.90;;;;;;4885615;29;20219;-80
2023/06/14 11:47:38;;;;;;;5.63;5.22;;;33.80;39.60;;;;;;4884242;29;20196;-80
2023/06/14 11:50:06;;;;;;;7.22;4.60;;;34.00;39.90;;;;;;4869903;29;20224;-79
2023/06/14 11:52:32;;;;;;;6.78;6.47;;;32.90;41.10;;;;;;4883047;29;20701;-81
2023/06/14 11:54:59;;;;;;;10.75;9.85;;;32.20;41.70;;;;;;4866579;29;20192;-79
2023/06/14 11:57:25;;;;;;;10.90;9.80;;;31.50;42.60;;;;;;4859591;29;20275;-79
2023/06/14 11:59:51;;;;;;;15.07;14.10;;;31.20;42.50;;;;;;4882538;29;20188;-79
2023/06/14 12:02:19;;;;;;;18.15;17.13;;;30.80;43.20;;;;;;4883659;29;20235;-79
2023/06/14 12:04:48;;;;;;;22.42;21.02;;;31.40;43.30;;;;;;4858573;29;20196;-81
2023/06/14 12:07:17;;;;;;;17.88;16.85;;;31.60;42.50;;;;;;4882890;29;20665;-80
2023/06/14 12:10:06;;;;;;;16.83;15.60;;;32.10;42.50;;;;;;4882552;29;20184;-80
2023/06/14 12:12:36;;;;;;;18.70;17.60;;;32.50;41.70;;;;;;4866346;29;20226;-79
2023/06/14 12:15:05;;;;;;;15.68;14.85;;;32.50;41.60;;;;;;4874763;29;20200;-79
2023/06/14 12:17:34;;;;;;;18.13;17.15;;;32.40;42.50;;;;;;4858774;29;20245;-79
2023/06/14 12:20:10;;;;;;;19.38;17.85;;;32.20;41.60;;;;;;4875986;29;20221;-80
2023/06/14 12:22:37;;;;;;;12.02;10.98;;;32.10;42.10;;;;;;4883439;29;20203;-79
2023/06/14 12:25:04;;;;;;;14.23;13.38;;;32.70;40.90;;;;;;4866422;29;20199;-80
2023/06/14 12:27:30;;;;;;;8.95;8.35;;;33.20;40.90;;;;;;4882819;29;20201;-80
2023/06/14 12:30:03;;;;;;;13.48;12.18;;;34.00;40.50;;;;;;4882627;29;20288;-79
2023/06/14 12:32:29;;;;;;;9.65;9.05;;;33.10;40.50;;;;;;4883145;29;20216;-80
2023/06/14 12:34:55;;;;;;;14.07;13.07;;;32.70;40.70;;;;;;4883680;29;20188;-80
2023/06/14 12:37:21;;;;;;;16.02;15.00;;;32.70;40.80;;;;;;4864304;29;20217;-79
2023/06/14 12:39:47;;;;;;;15.27;14.38;;;32.50;41.80;;;;;;4877996;29;20676;-80
2023/06/14 12:42:14;;;;;;;26.42;25.02;;;31.80;41.20;;;;;;4869277;29;20221;-80
2023/06/14 12:44:40;;;;;;;20.75;19.15;;;31.50;42.50;;;;;;4891093;29;20211;-80
2023/06/14 12:47:09;;;;;;;18.38;17.40;;;32.10;41.70;;;;;;4874107;29;20196;-80
2023/06/14 12:49:35;;;;;;;10.82;10.10;;;32.90;41.20;;;;;;4891926;29;20197;-80
2023/06/14 12:52:01;;;;;;;6.18;5.78;;;34.00;39.90;;;;;;4890603;29;20235;-80
2023/06/14 12:54:27;;;;;;;6.82;4.32;;;34.80;38.90;;;;;;4890421;29;20256;-81
2023/06/14 12:56:53;;;;;;;5.68;4.80;;;35.50;38.50;;;;;;4878955;29;20233;-79
2023/06/14 12:59:18;;;;;;;5.70;5.28;;;35.50;37.20;;;;;;4883756;29;20200;-81
2023/06/14 13:01:44;;;;;;;8.50;7.25;;;35.00;37.20;;;;;;4882969;29;20231;-80
2023/06/14 13:04:10;;;;;;;8.00;7.40;;;35.90;36.90;;;;;;4885012;29;20260;-80
2023/06/14 13:06:36;;;;;;;9.25;8.65;;;36.20;36.20;;;;;;4868959;29;20208;-81
2023/06/14 13:09:03;;;;;;;6.95;6.32;;;36.30;36.20;;;;;;4858819;29;20581;-81
2023/06/14 13:11:30;;;;;;;8.02;7.50;;;36.80;36.30;;;;;;4873991;29;20386;-81
2023/06/14 13:13:55;;;;;;;12.50;11.45;;;36.80;35.80;;;;;;4866049;29;20200;-81
2023/06/14 13:16:21;;;;;;;12.32;11.40;;;36.30;36.30;;;;;;4882309;29;20205;-81
2023/06/14 13:18:47;;;;;;;10.65;10.00;;;35.90;36.40;;;;;;4881726;29;20276;-81
2023/06/14 13:21:13;;;;;;;9.88;9.35;;;35.90;36.80;;;;;;4881949;29;20224;-81
2023/06/14 13:23:39;;;;;;;9.20;8.68;;;35.90;37.30;;;;;;4865647;29;20192;-80
2023/06/14 13:26:05;;;;;;;12.45;11.27;;;36.30;35.90;;;;;;4889101;29;20207;-80
2023/06/14 13:28:31;;;;;;;11.13;10.45;;;35.90;36.40;;;;;;4884275;29;20193;-81
2023/06/14 13:30:57;;;;;;;11.85;11.07;;;35.70;36.60;;;;;;4880239;29;20252;-81
2023/06/14 13:33:24;;;;;;;8.98;8.20;;;34.20;37.10;;;;;;4880556;29;20532;-79
2023/06/14 13:35:52;;;;;;;5.95;5.45;;;32.80;39.00;;;;;;4865520;29;20267;-81
2023/06/14 13:38:18;;;;;;;6.05;5.65;;;32.40;39.40;;;;;;4882454;29;20391;-79
2023/06/14 13:40:44;;;;;;;6.63;5.95;;;33.20;39.10;;;;;;4865485;29;20306;-79
2023/06/14 13:43:10;;;;;;;6.63;6.07;;;34.50;37.80;;;;;;4882719;29;20196;-81
2023/06/14 13:45:36;;;;;;;7.32;6.72;;;34.90;37.20;;;;;;4865475;29;20275;-79
2023/06/14 13:48:02;;;;;;;9.68;8.82;;;35.70;36.60;;;;;;4861358;29;20204;-80
2023/06/14 13:50:27;;;;;;;8.73;8.00;;;35.80;36.40;;;;;;4846734;29;20749;-80
2023/06/14 13:52:54;;;;;;;9.27;8.68;;;35.00;37.20;;;;;;4864985;29;20207;-80
2023/06/14 13:55:19;;;;;;;8.27;7.72;;;34.20;37.50;;;;;;4883845;29;20204;-79
2023/06/14 13:57:45;;;;;;;6.63;6.22;;;33.50;37.70;;;;;;4890323;29;20211;-79
2023/06/14 14:00:12;;;;;;;7.95;7.25;;;33.70;38.60;;;;;;4897803;29;20203;-80
2023/06/14 14:02:37;;;;;;;8.20;7.70;;;34.20;36.90;;;;;;4897147;29;20200;-81
2023/06/14 14:05:03;;;;;;;6.97;6.47;;;34.30;36.70;;;;;;4882906;29;20231;-81
2023/06/14 14:07:29;;;;;;;6.07;5.68;;;33.60;37.60;;;;;;4882123;29;20640;-80
2023/06/14 14:09:57;;;;;;;8.48;7.82;;;32.30;39.00;;;;;;4881355;29;20227;-79
2023/06/14 14:12:23;;;;;;;14.82;14.00;;;30.90;40.30;;;;;;4882013;29;20216;-80
2023/06/14 14:14:50;;;;;;;16.08;15.07;;;30.00;41.30;;;;;;4881641;29;20232;-80
2023/06/14 14:17:16;;;;;;;35.38;33.20;;;29.40;43.10;;;;;;4864347;29;20188;-79
2023/06/14 14:19:41;;;;;;;25.58;24.15;;;29.00;44.10;;;;;;4881227;29;20199;-79
2023/06/14 14:22:07;;;;;;;20.60;19.50;;;28.70;44.50;;;;;;4888745;29;20359;-81
2023/06/14 14:24:33;;;;;;;24.02;22.58;;;28.20;44.80;;;;;;4886713;29;20259;-79
2023/06/14 14:27:00;;;;;;;26.30;24.83;;;27.90;45.20;;;;;;4861606;29;20212;-81
2023/06/14 14:29:28;;;;;;;27.08;25.65;;;27.70;45.60;;;;;;4897297;29;20231;-78
2023/06/14 14:31:56;;;;;;;28.13;26.42;;;27.70;45.00;;;;;;4883125;29;20292;-79
2023/06/14 14:34:22;;;;;;;27.25;25.75;;;27.70;45.80;;;;;;4885089;29;20356;-80
2023/06/14 14:36:48;;;;;;;27.50;25.50;;;27.90;45.00;;;;;;4864649;29;20559;-80
2023/06/14 14:39:14;;;;;;;32.03;30.23;;;28.30;45.90;;;;;;4880319;29;20199;-80
2023/06/14 14:41:40;;;;;;;27.90;26.27;;;28.60;45.10;;;;;;4849246;29;20217;-80
2023/06/14 14:44:06;;;;;;;26.65;24.88;;;28.90;45.00;;;;;;4881381;29;20287;-80
2023/06/14 14:46:32;;;;;;;21.40;20.30;;;29.20;44.40;;;;;;4880874;29;20187;-79
2023/06/14 14:49:00;;;;;;;31.85;29.98;;;30.50;43.00;;;;;;4879967;29;20680;-79
2023/06/14 14:51:25;;;;;;;28.40;26.40;;;31.20;42.20;;;;;;4879978;29;20275;-79
2023/06/14 14:53:51;;;;;;;11.48;10.88;;;32.40;40.80;;;;;;4880947;29;20657;-79
2023/06/14 14:56:17;;;;;;;8.95;8.18;;;33.90;39.30;;;;;;4880458;29;20192;-80
2023/06/14 14:58:43;;;;;;;5.05;4.18;;;35.00;38.00;;;;;;4872353;29;20189;-79
2023/06/14 15:01:10;;;;;;;6.00;5.60;;;35.60;36.90;;;;;;4868842;29;20620;-79
2023/06/14 15:03:36;;;;;;;8.73;8.02;;;36.10;36.40;;;;;;4885942;29;20264;-80
2023/06/14 15:06:01;;;;;;;9.45;8.75;;;36.50;35.70;;;;;;4881657;29;20256;-80
2023/06/14 15:08:27;;;;;;;11.60;10.75;;;35.90;35.90;;;;;;4865807;29;20197;-80
2023/06/14 15:10:53;;;;;;;13.65;12.82;;;35.30;35.40;;;;;;4875455;29;20251;-80
2023/06/14 15:13:19;;;;;;;12.55;11.75;;;34.90;36.30;;;;;;4864614;29;20197;-80
2023/06/14 15:15:45;;;;;;;9.48;8.68;;;34.70;36.10;;;;;;4908708;23;20224;-78
2023/06/14 15:18:11;;;;;;;11.82;10.93;;;34.40;36.20;;;;;;4896494;29;20196;-78
2023/06/14 15:20:37;;;;;;;10.52;9.82;;;34.60;36.70;;;;;;4896797;29;20192;-78
2023/06/14 15:23:02;;;;;;;11.82;11.07;;;35.30;35.20;;;;;;4893244;29;20192;-78
2023/06/14 15:25:30;;;;;;;10.73;10.02;;;35.60;34.90;;;;;;4892419;29;20273;-78
2023/06/14 15:27:56;;;;;;;12.75;11.95;;;35.60;34.80;;;;;;4873795;29;20212;-77
2023/06/14 15:30:22;;;;;;;9.10;8.60;;;35.90;34.30;;;;;;4887258;29;20240;-78
2023/06/14 15:32:49;;;;;;;13.40;12.80;;;36.00;34.20;;;;;;4880355;29;20208;-78
2023/06/14 15:35:18;;;;;;;14.68;13.57;;;36.40;33.30;;;;;;4880803;29;20188;-77
2023/06/14 15:37:44;;;;;;;12.50;11.90;;;36.70;33.30;;;;;;4881010;29;20196;-77